KDTN

Shreveport Downtown Airport

Shreveport, Louisiana, USA
METAR KDTN 212253Z 28006KT 10SM CLR 34/18 A3002 RMK AO2 SLP164 T03390178
Observed Flight Rules
Aug-21 @ 22:53 UTC (55 minutes ago) Visual Flight Rules
Wind Visibility Clouds
280° at 6 knots 10 miles
  • Clear skies
Temperatures Readings
Current 34°C / 93°F
Dewpoint 18°C / 64°F
Humidity 39%
Altimeter 30.02" Hg
Pressure 1016.4 hPa
Elevation 53
METAR KDTN 212253Z 28006KT 10SM CLR 34/18 A3002 RMK AO2 SLP164 T03390178
Observed Flight Rules
Aug-21 @ 22:53 UTC
(55 minutes ago)
VFR
Wind Visibility
280° at 6 knots 10 miles
Clouds
  • Clear skies
Temperature Dewpoint
34°C / 93°F 18°C / 64°F
Humidity Altimeter Pressure
39% 30.02" Hg 1016.4 hPa